Terminal Aerodrome Forecast
Issued by NWS St Louis, MO

Home | Current Version | Previous Version | Text Only | Print | Product List | Glossary Off
Versions: 1 2 3 4 5 6 7 8 9 10 11 12 13 14 15 16 17 18 19

000
FTUS43 KLSX 290520
TAFCOU
TAF
KCOU 290520Z 2906/3006 19004KT P6SM SKC
     FM291200 32008KT P6SM VCTS SCT035CB BKN250
     FM291500 36010KT P6SM SCT040 BKN250
     FM291900 36010KT P6SM VCTS SCT040CB BKN250
     FM300000 36006KT P6SM SCT250=

USA.gov is the U.S. government's official web portal to all federal, state and local government web resources and services.